Time;durP1;ratioP1;P1;durP2;ratioP2;P2;SDS_P1;SDS_P2;PMS_P1;PMS_P2;Temp;Humidity;BMP_temperature;BMP_pressure;BME280_temperature;BME280_humidity;BME280_pressure;Samples;Min_cycle;Max_cycle;Signal;HPM_P1;HPM_P2
2022/08/13 00:01:16;;;;;;;2.85;1.58;;;;;29.00;101588.00;;;;5093367;28;20197;-76
2022/08/13 00:03:44;;;;;;;2.25;1.60;;;;;29.00;101594.00;;;;5102711;28;20206;-77
2022/08/13 00:06:11;;;;;;;2.00;1.65;;;;;28.90;101601.00;;;;5089575;28;20197;-76
2022/08/13 00:08:40;;;;;;;1.75;1.63;;;;;28.90;101592.00;;;;5090121;28;20325;-77
2022/08/13 00:12:56;;;;;;;1.77;1.48;;;;;28.80;101587.00;;;;5091222;28;20266;-77
2022/08/13 00:13:55;;;;;;;1.80;1.50;;;;;28.80;101588.00;;;;5094505;28;20250;-77
2022/08/13 00:16:23;;;;;;;1.48;1.33;;;;;28.80;101584.00;;;;5105336;28;20768;-77
2022/08/13 00:18:50;;;;;;;3.22;1.95;;;;;28.70;101587.00;;;;5110573;28;20213;-77
2022/08/13 00:21:17;;;;;;;2.33;1.73;;;;;28.70;101589.00;;;;5110007;28;20193;-76
2022/08/13 00:23:45;;;;;;;1.95;1.48;;;;;28.60;101591.00;;;;5099704;28;20201;-77
2022/08/13 00:26:14;;;;;;;2.05;1.70;;;;;28.50;101586.00;;;;5089260;28;20222;-76
2022/08/13 00:28:41;;;;;;;2.35;1.90;;;;;28.50;101585.00;;;;5101963;28;20202;-77
2022/08/13 00:31:08;;;;;;;3.50;1.50;;;;;28.50;101586.00;;;;5090526;28;20225;-77
2022/08/13 00:33:36;;;;;;;2.10;1.90;;;;;28.40;101583.00;;;;5098159;28;20198;-77
2022/08/13 00:36:04;;;;;;;3.17;1.80;;;;;28.30;101586.00;;;;5104944;28;20199;-76
2022/08/13 00:38:32;;;;;;;2.20;1.80;;;;;28.30;101583.00;;;;5077140;28;20213;-77
2022/08/13 00:41:00;;;;;;;1.98;1.75;;;;;28.20;101583.00;;;;5090697;28;20201;-77
2022/08/13 00:43:32;;;;;;;2.05;1.80;;;;;28.10;101580.00;;;;5097224;28;20197;-77
2022/08/13 00:46:01;;;;;;;3.53;2.00;;;;;28.10;101583.00;;;;5104403;28;20195;-77
2022/08/13 00:48:42;;;;;;;2.20;1.50;;;;;28.10;101581.00;;;;5106471;28;20200;-76
2022/08/13 00:51:13;;;;;;;1.75;1.63;;;;;28.00;101586.00;;;;5109033;28;20282;-77
2022/08/13 00:53:41;;;;;;;11.63;2.08;;;;;28.00;101584.00;;;;5100099;28;20251;-77
2022/08/13 00:56:09;;;;;;;2.17;1.88;;;;;27.90;101586.00;;;;5088478;28;20190;-77
2022/08/13 00:58:38;;;;;;;2.95;1.65;;;;;27.90;101589.00;;;;5109643;28;20666;-77
2022/08/13 01:01:06;;;;;;;2.78;1.75;;;;;27.80;101583.00;;;;5101754;28;20679;-76
2022/08/13 01:03:35;;;;;;;3.90;1.85;;;;;27.70;101583.00;;;;5095892;28;20581;-77
2022/08/13 01:06:05;;;;;;;2.35;1.65;;;;;27.70;101583.00;;;;5108687;28;20190;-77
2022/08/13 01:08:34;;;;;;;2.20;2.00;;;;;27.60;101587.00;;;;5108943;28;20197;-77
2022/08/13 01:11:04;;;;;;;1.80;1.60;;;;;27.60;101585.00;;;;5109158;28;20232;-77
2022/08/13 01:13:33;;;;;;;1.83;1.63;;;;;27.60;101582.00;;;;5097089;28;20554;-77
2022/08/13 01:16:04;;;;;;;2.20;1.70;;;;;27.50;101581.00;;;;5095090;28;20266;-76
2022/08/13 01:18:36;;;;;;;2.85;2.10;;;;;27.50;101587.00;;;;5096596;28;20280;-76
2022/08/13 01:21:15;;;;;;;5.25;1.80;;;;;27.40;101587.00;;;;5088622;28;20663;-77
2022/08/13 01:23:46;;;;;;;2.30;1.40;;;;;27.30;101587.00;;;;5098056;28;20193;-76
2022/08/13 01:26:15;;;;;;;3.35;1.77;;;;;27.30;101575.00;;;;5108382;28;20606;-76
2022/08/13 01:28:44;;;;;;;2.10;1.90;;;;;27.30;101586.00;;;;5100397;28;20277;-77
2022/08/13 01:31:14;;;;;;;2.13;1.65;;;;;27.20;101581.00;;;;5094665;28;20224;-76
2022/08/13 01:33:43;;;;;;;2.00;1.73;;;;;27.20;101583.00;;;;5100152;28;20201;-76
2022/08/13 01:36:11;;;;;;;3.28;1.67;;;;;27.10;101585.00;;;;5093351;28;20207;-76
2022/08/13 01:38:43;;;;;;;1.40;1.30;;;;;27.10;101583.00;;;;5087658;28;20224;-76
2022/08/13 01:41:12;;;;;;;1.88;1.65;;;;;27.00;101586.00;;;;5088702;28;20293;-76
2022/08/13 01:43:42;;;;;;;1.48;1.38;;;;;27.00;101585.00;;;;5095993;28;20189;-76
2022/08/13 01:46:12;;;;;;;6.70;1.98;;;;;26.90;101583.00;;;;5109156;28;20194;-76
2022/08/13 01:51:29;;;;;;;3.92;1.95;;;;;26.80;101582.00;;;;5107939;28;20294;-76
2022/08/13 01:53:59;;;;;;;2.88;1.52;;;;;26.80;101584.00;;;;5099071;28;20222;-76
2022/08/13 01:56:29;;;;;;;3.13;1.45;;;;;26.70;101585.00;;;;5087828;28;20209;-76
2022/08/13 01:58:59;;;;;;;2.67;1.77;;;;;26.70;101581.00;;;;5098298;28;20205;-77
2022/08/13 02:01:28;;;;;;;3.72;1.80;;;;;26.70;101584.00;;;;5089501;28;20203;-76
2022/08/13 02:03:56;;;;;;;2.50;1.65;;;;;26.60;101584.00;;;;5097806;28;20190;-76
2022/08/13 02:06:25;;;;;;;1.63;1.50;;;;;26.60;101582.00;;;;5107340;28;20221;-77
2022/08/13 02:08:58;;;;;;;2.03;1.77;;;;;26.50;101585.00;;;;5109082;28;20201;-77
2022/08/13 02:11:27;;;;;;;3.47;2.13;;;;;26.50;101589.00;;;;5098531;28;20595;-77
2022/08/13 02:13:55;;;;;;;1.88;1.63;;;;;26.50;101581.00;;;;5096790;28;20670;-77
2022/08/13 02:16:23;;;;;;;1.73;1.63;;;;;26.40;101579.00;;;;5094357;28;20202;-77
2022/08/13 02:18:53;;;;;;;2.97;1.98;;;;;26.40;101578.00;;;;5088191;28;20224;-77
2022/08/13 02:21:22;;;;;;;1.88;1.63;;;;;26.30;101582.00;;;;5095247;28;20193;-77
2022/08/13 02:23:56;;;;;;;1.90;1.45;;;;;26.30;101583.00;;;;5100091;28;20194;-77
2022/08/13 02:26:24;;;;;;;1.83;1.38;;;;;26.30;101579.00;;;;5087508;28;20225;-77
2022/08/13 02:28:54;;;;;;;1.70;1.60;;;;;26.20;101583.00;;;;5086745;28;20266;-77
2022/08/13 02:31:22;;;;;;;2.35;2.00;;;;;26.20;101575.00;;;;5087908;28;20222;-76
2022/08/13 02:33:49;;;;;;;2.10;1.90;;;;;26.10;101579.00;;;;5086345;28;20202;-77
2022/08/13 02:36:20;;;;;;;2.17;1.98;;;;;26.10;101573.00;;;;5085223;28;20565;-77
2022/08/13 02:38:53;;;;;;;3.05;1.60;;;;;26.10;101576.00;;;;5108460;28;20197;-77
2022/08/13 02:41:39;;;;;;;1.80;1.60;;;;;26.00;101579.00;;;;5099504;28;20633;-77
2022/08/13 02:44:11;;;;;;;2.28;1.55;;;;;26.00;101577.00;;;;5092352;28;20194;-77
2022/08/13 02:46:38;;;;;;;6.80;2.05;;;;;25.90;101573.00;;;;5087357;28;20229;-77
2022/08/13 02:49:06;;;;;;;1.80;1.60;;;;;25.90;101573.00;;;;5093956;28;20186;-77
2022/08/13 02:51:33;;;;;;;2.58;1.67;;;;;25.90;101574.00;;;;5107664;28;20587;-77
2022/08/13 02:54:01;;;;;;;3.67;1.88;;;;;25.90;101578.00;;;;5101622;28;20594;-77
2022/08/13 02:56:29;;;;;;;4.15;1.80;;;;;25.80;101583.00;;;;5087094;28;20198;-77
2022/08/13 02:58:57;;;;;;;1.90;1.73;;;;;25.80;101579.00;;;;5088399;28;20746;-77
2022/08/13 03:01:26;;;;;;;2.58;1.88;;;;;25.80;101580.00;;;;5086992;28;20191;-77
2022/08/13 03:03:54;;;;;;;2.13;1.67;;;;;25.70;101585.00;;;;5093108;28;20197;-77
2022/08/13 03:06:22;;;;;;;1.83;1.50;;;;;25.70;101582.00;;;;5096609;28;20225;-76
2022/08/13 03:08:51;;;;;;;2.78;1.92;;;;;25.70;101583.00;;;;5088641;28;20202;-77
2022/08/13 03:11:19;;;;;;;1.95;1.77;;;;;25.60;101583.00;;;;5090847;28;20255;-77
2022/08/13 03:13:53;;;;;;;2.17;1.95;;;;;25.60;101580.00;;;;5095461;28;20194;-77
2022/08/13 03:16:27;;;;;;;2.35;1.45;;;;;25.50;101586.00;;;;5106990;28;20197;-77
2022/08/13 03:18:57;;;;;;;2.20;1.88;;;;;25.50;101580.00;;;;5090925;28;20198;-77
2022/08/13 03:21:27;;;;;;;2.38;1.80;;;;;25.50;101582.00;;;;5091018;28;20202;-77
2022/08/13 03:23:54;;;;;;;1.88;1.60;;;;;25.50;101597.00;;;;5102799;28;20198;-77
2022/08/13 03:26:22;;;;;;;3.53;1.35;;;;;25.50;101586.00;;;;5090172;28;20895;-77
2022/08/13 03:28:51;;;;;;;2.22;1.98;;;;;25.40;101585.00;;;;5090778;28;20517;-77
2022/08/13 03:31:19;;;;;;;1.70;1.60;;;;;25.40;101592.00;;;;5090602;28;20210;-77
2022/08/13 03:33:48;;;;;;;2.20;1.92;;;;;25.40;101582.00;;;;5091389;28;20683;-76
2022/08/13 03:36:15;;;;;;;2.33;1.85;;;;;25.40;101581.00;;;;5087642;28;20255;-77
2022/08/13 03:38:43;;;;;;;2.58;1.98;;;;;25.30;101583.00;;;;5101460;28;20215;-77
2022/08/13 03:41:12;;;;;;;1.85;1.75;;;;;25.30;101583.00;;;;5075759;28;20559;-76
2022/08/13 03:43:44;;;;;;;3.92;1.65;;;;;25.20;101585.00;;;;5090843;28;20205;-77
2022/08/13 03:46:12;;;;;;;2.45;1.98;;;;;25.30;101581.00;;;;5090791;28;20555;-77
2022/08/13 03:48:41;;;;;;;2.30;1.98;;;;;25.20;101582.00;;;;5107606;28;20189;-76
2022/08/13 03:51:11;;;;;;;2.40;1.70;;;;;25.20;101582.00;;;;5109877;28;20214;-77
2022/08/13 03:53:40;;;;;;;3.10;2.17;;;;;25.20;101581.00;;;;5099305;28;20214;-76
2022/08/13 03:56:09;;;;;;;1.52;1.42;;;;;25.20;101582.00;;;;5094021;28;20198;-77
2022/08/13 03:58:38;;;;;;;2.55;1.63;;;;;25.10;101581.00;;;;5093942;28;20194;-77
2022/08/13 04:01:05;;;;;;;2.15;1.90;;;;;25.10;101584.00;;;;5090014;28;20248;-76
2022/08/13 04:03:37;;;;;;;1.77;1.55;;;;;25.10;101581.00;;;;5091002;28;20202;-77
2022/08/13 04:06:08;;;;;;;2.55;1.77;;;;;25.10;101582.00;;;;5090266;28;20198;-77
2022/08/13 04:08:38;;;;;;;2.30;1.80;;;;;25.00;101576.00;;;;5096447;28;20565;-76
2022/08/13 04:11:08;;;;;;;2.92;1.50;;;;;25.00;101576.00;;;;5094857;28;20573;-76
2022/08/13 04:13:37;;;;;;;2.08;1.88;;;;;25.00;101580.00;;;;5089780;28;20269;-77
2022/08/13 04:16:07;;;;;;;3.20;1.58;;;;;25.00;101575.00;;;;5091691;28;20237;-76
2022/08/13 04:18:35;;;;;;;1.73;1.52;;;;;25.00;101570.00;;;;5091709;28;20194;-77
2022/08/13 04:21:04;;;;;;;2.50;1.60;;;;;25.00;101578.00;;;;5092137;28;20749;-77
2022/08/13 04:23:33;;;;;;;1.42;1.30;;;;;24.90;101571.00;;;;5107577;28;20296;-77
2022/08/13 04:26:02;;;;;;;2.22;2.05;;;;;24.90;101577.00;;;;5089702;28;20797;-77
2022/08/13 04:28:30;;;;;;;4.18;1.90;;;;;24.90;101569.00;;;;5095105;28;20623;-76
2022/08/13 04:30:58;;;;;;;1.85;1.58;;;;;24.90;101577.00;;;;5108332;28;20216;-76
2022/08/13 04:33:27;;;;;;;5.32;2.10;;;;;24.90;101569.00;;;;5090059;28;20203;-76
2022/08/13 04:35:56;;;;;;;1.85;1.70;;;;;24.90;101572.00;;;;5089973;28;20271;-76
2022/08/13 04:38:23;;;;;;;2.92;1.52;;;;;24.90;101580.00;;;;5071784;28;20194;-76
2022/08/13 04:40:51;;;;;;;2.33;1.65;;;;;24.80;101572.00;;;;5093928;28;20682;-76
2022/08/13 04:43:19;;;;;;;3.03;1.55;;;;;24.80;101577.00;;;;5089793;28;20194;-76
2022/08/13 04:45:47;;;;;;;2.72;1.60;;;;;24.80;101576.00;;;;5089318;28;20206;-76
2022/08/13 04:48:15;;;;;;;1.98;1.30;;;;;24.80;101574.00;;;;5107878;28;20197;-76
2022/08/13 04:50:44;;;;;;;4.55;1.70;;;;;24.80;101578.00;;;;5108987;28;20189;-76
2022/08/13 04:53:23;;;;;;;2.03;1.83;;;;;24.70;101578.00;;;;5108512;28;20236;-76
2022/08/13 04:55:50;;;;;;;2.97;1.23;;;;;24.80;101578.00;;;;5109162;28;20193;-76
2022/08/13 04:58:19;;;;;;;2.00;1.73;;;;;24.80;101584.00;;;;5107532;28;20194;-76
2022/08/13 05:00:48;;;;;;;1.70;1.60;;;;;24.80;101582.00;;;;5103227;28;20679;-76
2022/08/13 05:03:18;;;;;;;2.20;1.50;;;;;24.80;101589.00;;;;5106965;28;20205;-76
2022/08/13 05:05:47;;;;;;;2.53;2.00;;;;;24.80;101580.00;;;;5109715;28;20201;-76
2022/08/13 05:08:15;;;;;;;4.68;1.80;;;;;24.90;101586.00;;;;5109807;28;20210;-76
2022/08/13 05:10:42;;;;;;;5.55;1.60;;;;;24.90;101590.00;;;;5108669;28;20856;-76
2022/08/13 05:13:29;;;;;;;2.08;1.60;;;;;24.80;101584.00;;;;5091248;28;20217;-76
2022/08/13 05:15:58;;;;;;;1.80;1.70;;;;;24.90;101582.00;;;;5106811;28;20204;-76
2022/08/13 05:18:26;;;;;;;3.25;1.70;;;;;24.90;101582.00;;;;5088880;28;20206;-76
2022/08/13 05:20:54;;;;;;;1.50;1.40;;;;;25.00;101581.00;;;;5089036;28;20195;-76
2022/08/13 05:23:23;;;;;;;1.80;1.65;;;;;25.00;101579.00;;;;5108392;28;20217;-76
2022/08/13 05:25:51;;;;;;;3.33;1.77;;;;;25.00;101588.00;;;;5090565;28;20567;-76
2022/08/13 05:28:18;;;;;;;1.73;1.60;;;;;25.10;101592.00;;;;5088712;28;20213;-76
2022/08/13 05:30:47;;;;;;;1.67;1.40;;;;;25.10;101587.00;;;;5088520;28;20895;-76
2022/08/13 05:33:17;;;;;;;1.45;1.27;;;;;25.10;101583.00;;;;5106823;28;20245;-76
2022/08/13 05:35:45;;;;;;;1.58;1.17;;;;;25.20;101586.00;;;;5094570;28;20690;-76
2022/08/13 05:38:14;;;;;;;2.70;1.30;;;;;25.20;101583.00;;;;5088947;28;20205;-76
2022/08/13 05:40:41;;;;;;;2.55;1.67;;;;;25.30;101586.00;;;;5088471;28;20255;-76
2022/08/13 05:43:13;;;;;;;2.88;1.42;;;;;25.30;101585.00;;;;5107212;28;20209;-76
2022/08/13 05:45:41;;;;;;;2.10;1.20;;;;;25.40;101586.00;;;;5088424;28;20195;-76
2022/08/13 05:48:10;;;;;;;1.52;1.40;;;;;25.50;101582.00;;;;5108345;28;20663;-76
2022/08/13 05:50:37;;;;;;;1.83;1.60;;;;;25.50;101581.00;;;;5108362;28;20209;-77
2022/08/13 05:53:10;;;;;;;4.30;1.70;;;;;25.60;101585.00;;;;5090849;28;20234;-76
2022/08/13 05:55:38;;;;;;;1.75;1.58;;;;;25.70;101583.00;;;;5087842;28;20189;-76
2022/08/13 05:58:07;;;;;;;2.08;1.20;;;;;25.80;101583.00;;;;5108705;28;20201;-76
2022/08/13 06:03:25;;;;;;;1.45;1.10;;;;;26.00;101578.00;;;;5055607;28;20290;-76
2022/08/13 06:05:54;;;;;;;2.45;1.42;;;;;26.10;101587.00;;;;5093675;28;20313;-76
2022/08/13 06:08:24;;;;;;;1.55;1.10;;;;;26.20;101583.00;;;;5107157;28;20206;-76
2022/08/13 06:10:52;;;;;;;2.95;1.38;;;;;26.30;101582.00;;;;5069521;28;20298;-76
2022/08/13 06:13:19;;;;;;;1.33;1.23;;;;;26.40;101586.00;;;;5106116;28;20687;-76
2022/08/13 06:15:57;;;;;;;1.70;1.40;;;;;26.50;101590.00;;;;5096723;28;20690;-76
2022/08/13 06:18:26;;;;;;;1.70;1.40;;;;;26.60;101584.00;;;;5107621;28;20276;-77
2022/08/13 06:20:55;;;;;;;2.03;1.33;;;;;26.70;101585.00;;;;5107579;28;20694;-77
2022/08/13 06:23:26;;;;;;;1.52;1.25;;;;;26.80;101587.00;;;;5088133;28;20604;-77
2022/08/13 06:25:54;;;;;;;1.60;1.42;;;;;27.00;101583.00;;;;5088033;28;20233;-75
2022/08/13 06:28:22;;;;;;;1.80;1.30;;;;;27.10;101584.00;;;;5088052;28;20210;-75
2022/08/13 06:30:51;;;;;;;1.25;1.15;;;;;27.20;101587.00;;;;5097847;28;20194;-75
2022/08/13 06:33:21;;;;;;;2.47;1.58;;;;;27.30;101585.00;;;;5088617;28;20229;-75
2022/08/13 06:35:51;;;;;;;1.67;1.50;;;;;27.40;101590.00;;;;5089356;28;20325;-75
2022/08/13 06:38:20;;;;;;;2.60;1.63;;;;;27.50;101589.00;;;;5098519;28;20189;-75
2022/08/13 06:40:49;;;;;;;1.77;1.38;;;;;27.60;101593.00;;;;5108167;28;20186;-75
2022/08/13 06:43:18;;;;;;;1.40;1.30;;;;;27.70;101595.00;;;;5097844;28;20237;-74
2022/08/13 06:45:46;;;;;;;1.33;1.15;;;;;27.80;101590.00;;;;5107182;28;20559;-75
2022/08/13 06:48:14;;;;;;;1.30;1.13;;;;;27.90;101591.00;;;;5111636;28;20197;-75
2022/08/13 06:50:42;;;;;;;4.07;1.50;;;;;28.00;101584.00;;;;5111504;28;20197;-75
2022/08/13 06:53:11;;;;;;;1.98;1.50;;;;;28.10;101594.00;;;;5094675;28;20217;-76
2022/08/13 06:55:41;;;;;;;1.70;1.20;;;;;28.20;101586.00;;;;5091236;28;20206;-76
2022/08/13 06:58:10;;;;;;;1.70;1.42;;;;;28.30;101587.00;;;;5092077;28;20201;-76
2022/08/13 07:00:39;;;;;;;1.35;1.23;;;;;28.40;101590.00;;;;5091714;28;20328;-76
2022/08/13 07:03:06;;;;;;;1.88;1.20;;;;;28.50;101595.00;;;;5103804;28;20190;-75
2022/08/13 07:05:35;;;;;;;1.52;1.35;;;;;28.60;101592.00;;;;5091720;28;20259;-75
2022/08/13 07:08:04;;;;;;;1.60;1.50;;;;;28.70;101595.00;;;;5109474;28;20217;-76
2022/08/13 07:10:33;;;;;;;1.30;1.15;;;;;28.80;101596.00;;;;5112202;28;20204;-76
2022/08/13 07:13:02;;;;;;;1.55;1.23;;;;;28.90;101600.00;;;;5111538;28;20272;-76
2022/08/13 07:15:30;;;;;;;2.28;1.38;;;;;29.00;101597.00;;;;5101980;28;20187;-76
2022/08/13 07:17:58;;;;;;;19.92;1.30;;;;;29.10;101600.00;;;;5091295;28;20190;-76
2022/08/13 07:20:26;;;;;;;1.50;1.20;;;;;29.20;101602.00;;;;5091038;28;20199;-75
2022/08/13 07:22:54;;;;;;;1.90;1.40;;;;;29.30;101601.00;;;;5090987;28;20707;-77
2022/08/13 07:25:23;;;;;;;1.38;1.23;;;;;29.40;101605.00;;;;5090902;28;20194;-76
2022/08/13 07:27:53;;;;;;;2.95;1.50;;;;;29.50;101606.00;;;;5090781;28;20222;-76
2022/08/13 07:30:21;;;;;;;1.30;1.20;;;;;29.70;101607.00;;;;5090447;28;20202;-76
2022/08/13 07:32:51;;;;;;;1.63;1.23;;;;;29.80;101608.00;;;;5106664;28;20224;-76
2022/08/13 07:35:18;;;;;;;1.40;1.30;;;;;29.90;101608.00;;;;5098516;28;20349;-77
2022/08/13 07:37:50;;;;;;;1.38;1.20;;;;;30.00;101609.00;;;;5095058;28;20206;-76
2022/08/13 07:40:19;;;;;;;2.05;1.55;;;;;30.10;101614.00;;;;5090262;28;20199;-76
2022/08/13 07:42:49;;;;;;;1.23;1.00;;;;;30.20;101600.00;;;;5090847;28;20763;-77
2022/08/13 07:45:24;;;;;;;1.85;1.30;;;;;30.30;101613.00;;;;5094850;28;20234;-77
2022/08/13 07:47:52;;;;;;;3.70;1.45;;;;;30.40;101613.00;;;;5104127;28;20242;-77
2022/08/13 07:50:20;;;;;;;1.58;1.13;;;;;30.60;101621.00;;;;5110092;28;20288;-77
2022/08/13 07:52:52;;;;;;;0.95;0.90;;;;;30.70;101617.00;;;;5107698;28;20222;-76
2022/08/13 07:55:23;;;;;;;1.38;1.27;;;;;30.80;101613.00;;;;5105246;28;20210;-77
2022/08/13 07:57:51;;;;;;;2.90;1.70;;;;;30.90;101618.00;;;;5098990;28;20224;-78
2022/08/13 08:00:24;;;;;;;1.50;1.02;;;;;31.00;101612.00;;;;5098507;28;20790;-77
2022/08/13 08:03:01;;;;;;;1.83;1.30;;;;;31.10;101618.00;;;;5090414;28;20456;-77
2022/08/13 08:05:33;;;;;;;1.83;1.15;;;;;31.30;101618.00;;;;5095916;28;20762;-78
2022/08/13 08:08:02;;;;;;;2.50;1.52;;;;;31.40;101609.00;;;;5092990;28;20214;-77
2022/08/13 08:10:31;;;;;;;1.27;1.15;;;;;31.50;101609.00;;;;5110885;28;20193;-77
2022/08/13 08:13:00;;;;;;;1.10;1.00;;;;;31.60;101615.00;;;;5097542;28;20237;-77
2022/08/13 08:15:29;;;;;;;0.95;0.90;;;;;31.70;101614.00;;;;5094413;28;20200;-78
2022/08/13 08:17:57;;;;;;;1.27;1.17;;;;;31.80;101612.00;;;;5070912;28;20203;-77
2022/08/13 08:20:25;;;;;;;1.10;1.00;;;;;31.90;101618.00;;;;5111196;28;20269;-77
2022/08/13 08:22:52;;;;;;;2.13;1.02;;;;;32.00;101621.00;;;;5109839;28;20190;-77
2022/08/13 08:25:21;;;;;;;2.85;1.10;;;;;32.10;101621.00;;;;5104516;28;20199;-77
2022/08/13 08:27:49;;;;;;;2.25;1.20;;;;;32.20;101613.00;;;;5090033;28;20214;-77
2022/08/13 08:30:18;;;;;;;1.80;1.60;;;;;32.30;101618.00;;;;5089808;28;20193;-78
2022/08/13 08:32:51;;;;;;;3.03;0.90;;;;;32.40;101614.00;;;;5104539;28;20224;-78
2022/08/13 08:35:20;;;;;;;1.42;1.27;;;;;32.60;101621.00;;;;5106268;28;20202;-76
2022/08/13 08:43:30;;;;;;;2.75;1.10;;;;;33.00;101626.00;;;;5090453;28;20289;-78
2022/08/13 08:45:58;;;;;;;1.20;1.10;;;;;33.10;101626.00;;;;5097586;28;20193;-78
2022/08/13 08:48:28;;;;;;;1.50;0.98;;;;;33.20;101627.00;;;;5107777;28;20189;-77
2022/08/13 08:50:56;;;;;;;1.58;1.10;;;;;33.40;101628.00;;;;5110033;28;20235;-77
2022/08/13 08:53:24;;;;;;;1.00;0.98;;;;;33.50;101626.00;;;;5095487;28;20859;-77
2022/08/13 08:55:53;;;;;;;1.25;1.05;;;;;33.60;101622.00;;;;5089709;28;20201;-77
2022/08/13 08:58:21;;;;;;;0.98;0.80;;;;;33.70;101623.00;;;;5089552;28;21037;-77
2022/08/13 09:00:49;;;;;;;1.98;1.00;;;;;33.80;101628.00;;;;5089317;28;20202;-78
2022/08/13 09:03:19;;;;;;;0.90;0.90;;;;;33.90;101623.00;;;;5088432;28;20198;-77
2022/08/13 09:05:48;;;;;;;6.50;1.38;;;;;33.90;101624.00;;;;5094893;28;20208;-77
2022/08/13 09:08:18;;;;;;;1.23;1.13;;;;;34.10;101609.00;;;;5108957;28;20209;-77
2022/08/13 09:10:49;;;;;;;1.30;1.20;;;;;34.10;101607.00;;;;5109016;28;20189;-75
2022/08/13 09:13:19;;;;;;;1.33;1.20;;;;;34.20;101608.00;;;;5091337;28;20774;-76
2022/08/13 09:15:50;;;;;;;2.47;1.15;;;;;34.30;101619.00;;;;5102019;28;20667;-77
2022/08/13 09:18:19;;;;;;;1.27;1.10;;;;;34.40;101609.00;;;;5102253;28;20287;-78
2022/08/13 09:20:49;;;;;;;1.88;0.75;;;;;34.50;101602.00;;;;5095366;28;20190;-78
2022/08/13 09:23:18;;;;;;;2.47;1.02;;;;;34.60;101606.00;;;;5097574;28;20624;-77
2022/08/13 09:25:51;;;;;;;1.35;1.10;;;;;34.70;101602.00;;;;5091319;28;20752;-78
2022/08/13 09:28:23;;;;;;;1.80;1.25;;;;;34.80;101602.00;;;;5087920;28;20201;-76
2022/08/13 09:30:51;;;;;;;2.58;1.40;;;;;34.90;101603.00;;;;5089338;28;20307;-78
2022/08/13 09:33:20;;;;;;;1.10;1.00;;;;;35.00;101600.00;;;;5079996;28;20225;-77
2022/08/13 09:35:51;;;;;;;1.42;1.17;;;;;35.10;101604.00;;;;5106264;28;20201;-77
2022/08/13 09:38:21;;;;;;;1.50;1.30;;;;;35.20;101605.00;;;;5106493;28;20196;-77
2022/08/13 09:40:55;;;;;;;1.10;0.95;;;;;35.20;101605.00;;;;5109708;28;20236;-76
2022/08/13 09:43:27;;;;;;;1.27;1.00;;;;;35.30;101605.00;;;;5090043;28;20197;-76
2022/08/13 09:45:55;;;;;;;1.10;0.82;;;;;35.40;101604.00;;;;5106663;28;20203;-77
2022/08/13 09:48:24;;;;;;;1.55;1.02;;;;;35.60;101598.00;;;;5109104;28;20193;-77
2022/08/13 09:50:53;;;;;;;3.13;1.10;;;;;35.60;101602.00;;;;5094018;28;20201;-78
2022/08/13 09:53:20;;;;;;;1.50;1.00;;;;;35.80;101596.00;;;;5088140;28;20318;-77
2022/08/13 09:55:48;;;;;;;1.67;1.00;;;;;35.90;101596.00;;;;5105271;28;20204;-77
2022/08/13 09:58:15;;;;;;;1.33;1.13;;;;;36.00;101597.00;;;;5094901;28;20194;-77
2022/08/13 10:00:45;;;;;;;3.97;1.10;;;;;36.10;101597.00;;;;5087846;28;20205;-76
2022/08/13 10:03:14;;;;;;;1.38;1.27;;;;;36.10;101594.00;;;;5087259;28;20197;-77
2022/08/13 10:05:41;;;;;;;1.10;1.00;;;;;36.20;101588.00;;;;5103300;28;20197;-78
2022/08/13 10:08:17;;;;;;;1.60;0.88;;;;;36.30;101592.00;;;;5093605;28;20213;-77
2022/08/13 10:10:46;;;;;;;1.20;1.10;;;;;36.40;101593.00;;;;5088213;28;20687;-78
2022/08/13 10:13:14;;;;;;;1.20;1.10;;;;;36.50;101588.00;;;;5088735;28;20225;-77
2022/08/13 10:15:42;;;;;;;0.77;0.77;;;;;36.50;101589.00;;;;5106003;28;20200;-78
2022/08/13 10:18:09;;;;;;;1.77;0.90;;;;;36.60;101580.00;;;;5108030;28;20246;-77
2022/08/13 10:20:38;;;;;;;1.50;1.40;;;;;36.70;101581.00;;;;5101366;28;20255;-77
2022/08/13 10:23:08;;;;;;;1.98;1.30;;;;;36.70;101578.00;;;;5088101;28;20210;-77
2022/08/13 10:25:38;;;;;;;5.45;1.38;;;;;36.80;101570.00;;;;5086868;28;20703;-78
2022/08/13 10:28:17;;;;;;;1.25;0.82;;;;;36.80;101570.00;;;;5104641;28;20320;-78
2022/08/13 10:30:44;;;;;;;3.53;1.10;;;;;36.90;101571.00;;;;5084781;28;20693;-77
2022/08/13 10:33:12;;;;;;;1.40;1.20;;;;;36.90;101570.00;;;;5107440;28;20213;-77
2022/08/13 10:35:40;;;;;;;1.75;1.35;;;;;37.00;101574.00;;;;5108115;28;20232;-77
2022/08/13 10:38:08;;;;;;;4.05;0.90;;;;;37.00;101572.00;;;;5088211;28;20224;-77
2022/08/13 10:40:37;;;;;;;1.17;1.08;;;;;37.10;101580.00;;;;5090921;28;20200;-77
2022/08/13 10:43:05;;;;;;;4.38;0.80;;;;;37.20;101576.00;;;;5088576;28;20202;-77
2022/08/13 10:45:34;;;;;;;3.30;1.10;;;;;37.20;101575.00;;;;5087226;28;20206;-77
2022/08/13 10:48:02;;;;;;;0.93;0.90;;;;;37.20;101577.00;;;;5070911;28;20277;-77
2022/08/13 10:50:30;;;;;;;9.07;1.05;;;;;37.20;101581.00;;;;5092783;28;20185;-77
2022/08/13 10:52:58;;;;;;;1.75;1.23;;;;;37.20;101579.00;;;;5096367;28;20198;-77
2022/08/13 10:55:27;;;;;;;1.77;1.08;;;;;37.30;101579.00;;;;5087313;28;20208;-77
2022/08/13 10:57:55;;;;;;;1.20;1.10;;;;;37.30;101575.00;;;;5087443;28;20210;-76
2022/08/13 11:00:26;;;;;;;1.20;0.93;;;;;37.30;101574.00;;;;5091242;28;20552;-76
2022/08/13 11:02:53;;;;;;;1.00;1.00;;;;;37.30;101575.00;;;;5107335;28;20259;-77
2022/08/13 11:05:22;;;;;;;2.85;1.10;;;;;37.30;101574.00;;;;5107130;28;20605;-76
2022/08/13 11:07:51;;;;;;;1.40;0.90;;;;;37.40;101577.00;;;;5099212;28;20213;-76
2022/08/13 11:10:20;;;;;;;2.78;1.23;;;;;37.40;101575.00;;;;5090859;28;20229;-76
2022/08/13 11:12:51;;;;;;;0.70;0.70;;;;;37.40;101576.00;;;;5103625;28;20580;-77
2022/08/13 11:15:21;;;;;;;3.80;1.23;;;;;37.40;101576.00;;;;5086817;28;20665;-77
2022/08/13 11:17:49;;;;;;;1.30;1.20;;;;;37.40;101578.00;;;;5087514;28;20242;-76
2022/08/13 11:20:19;;;;;;;1.10;1.00;;;;;37.40;101565.00;;;;5089940;28;20545;-76
2022/08/13 11:22:48;;;;;;;1.17;1.08;;;;;37.40;101571.00;;;;5107680;28;20193;-76
2022/08/13 11:25:15;;;;;;;1.25;1.15;;;;;37.40;101559.00;;;;5092136;28;20223;-76
2022/08/13 11:27:42;;;;;;;1.42;1.30;;;;;37.40;101562.00;;;;5098747;28;20225;-76
2022/08/13 11:30:10;;;;;;;1.25;1.15;;;;;37.40;101554.00;;;;5107430;28;20204;-77
2022/08/13 11:32:39;;;;;;;1.30;1.20;;;;;37.40;101561.00;;;;5082841;28;20202;-77
2022/08/13 11:35:08;;;;;;;0.90;0.90;;;;;37.50;101554.00;;;;5090774;28;20221;-77
2022/08/13 11:37:35;;;;;;;0.80;0.70;;;;;37.50;101546.00;;;;5085329;28;20197;-76
2022/08/13 11:40:04;;;;;;;1.17;0.98;;;;;37.50;101547.00;;;;5089495;28;20630;-76
2022/08/13 11:42:32;;;;;;;1.27;0.98;;;;;37.50;101550.00;;;;5090589;28;20233;-76
2022/08/13 11:44:59;;;;;;;0.88;0.80;;;;;37.50;101540.00;;;;5073614;28;20201;-77
2022/08/13 11:47:27;;;;;;;0.70;0.70;;;;;37.50;101544.00;;;;5090705;28;20197;-75
2022/08/13 11:49:55;;;;;;;2.38;0.90;;;;;37.50;101537.00;;;;5090321;28;20688;-78
2022/08/13 11:52:23;;;;;;;1.70;1.00;;;;;37.50;101534.00;;;;5110343;28;20276;-77
2022/08/13 11:54:50;;;;;;;0.93;0.80;;;;;37.50;101542.00;;;;5106930;28;20213;-77
2022/08/13 11:57:17;;;;;;;0.60;0.60;;;;;37.50;101534.00;;;;5091189;28;20623;-76
2022/08/13 11:59:44;;;;;;;1.80;0.90;;;;;37.50;101536.00;;;;5110436;28;20201;-77
2022/08/13 12:02:12;;;;;;;1.20;0.75;;;;;37.50;101547.00;;;;5110692;28;20193;-76
2022/08/13 12:04:39;;;;;;;1.45;1.27;;;;;37.50;101535.00;;;;5110879;28;20193;-77
2022/08/13 12:07:08;;;;;;;0.70;0.70;;;;;37.50;101542.00;;;;5108256;28;20221;-77
2022/08/13 12:09:35;;;;;;;2.40;1.10;;;;;37.50;101545.00;;;;5090076;28;20210;-77
2022/08/13 12:12:03;;;;;;;0.88;0.82;;;;;37.50;101541.00;;;;5092789;28;20489;-77
2022/08/13 12:14:30;;;;;;;0.85;0.80;;;;;37.50;101542.00;;;;5098549;28;20213;-77
2022/08/13 12:16:58;;;;;;;1.00;0.90;;;;;37.60;101536.00;;;;5110248;28;20757;-76
2022/08/13 12:19:25;;;;;;;1.08;0.82;;;;;37.60;101536.00;;;;5110227;28;20204;-76
2022/08/13 12:21:52;;;;;;;0.90;0.70;;;;;37.60;101535.00;;;;5107402;28;20186;-77
2022/08/13 12:24:21;;;;;;;1.90;1.00;;;;;37.60;101540.00;;;;5091760;28;20619;-78
2022/08/13 12:26:51;;;;;;;0.80;0.70;;;;;37.70;101528.00;;;;5097690;28;20222;-76
2022/08/13 12:29:18;;;;;;;2.47;0.90;;;;;37.70;101533.00;;;;5086875;28;20214;-76